sensor_id;sensor_type;location;lat;lon;timestamp;P1;durP1;ratioP1;P2;durP2;ratioP2
20069;SDS011;10195;50.868;4.382;2023-04-15T00:00:48;4.27;;;3.20;;
20069;SDS011;10195;50.868;4.382;2023-04-15T00:03:18;5.73;;;3.73;;
20069;SDS011;10195;50.868;4.382;2023-04-15T00:05:44;5.83;;;3.80;;
20069;SDS011;10195;50.868;4.382;2023-04-15T00:08:10;3.90;;;3.10;;
20069;SDS011;10195;50.868;4.382;2023-04-15T00:10:36;5.40;;;3.47;;
20069;SDS011;10195;50.868;4.382;2023-04-15T00:13:02;5.27;;;3.30;;
20069;SDS011;10195;50.868;4.382;2023-04-15T00:15:28;7.03;;;3.73;;
20069;SDS011;10195;50.868;4.382;2023-04-15T00:17:56;4.60;;;2.83;;
20069;SDS011;10195;50.868;4.382;2023-04-15T00:20:22;6.87;;;3.40;;
20069;SDS011;10195;50.868;4.382;2023-04-15T00:22:48;5.10;;;3.83;;
20069;SDS011;10195;50.868;4.382;2023-04-15T00:25:13;7.17;;;3.27;;
20069;SDS011;10195;50.868;4.382;2023-04-15T00:27:39;6.77;;;3.60;;
20069;SDS011;10195;50.868;4.382;2023-04-15T00:30:05;6.60;;;3.43;;
20069;SDS011;10195;50.868;4.382;2023-04-15T00:32:31;6.00;;;3.53;;
20069;SDS011;10195;50.868;4.382;2023-04-15T00:34:57;6.13;;;3.60;;
20069;SDS011;10195;50.868;4.382;2023-04-15T00:37:22;5.47;;;3.60;;
20069;SDS011;10195;50.868;4.382;2023-04-15T00:39:48;5.37;;;3.57;;
20069;SDS011;10195;50.868;4.382;2023-04-15T00:42:14;8.13;;;4.00;;
20069;SDS011;10195;50.868;4.382;2023-04-15T00:44:40;9.80;;;4.33;;
20069;SDS011;10195;50.868;4.382;2023-04-15T00:47:06;5.57;;;3.67;;
20069;SDS011;10195;50.868;4.382;2023-04-15T00:49:32;4.97;;;3.17;;
20069;SDS011;10195;50.868;4.382;2023-04-15T00:51:58;7.43;;;3.17;;
20069;SDS011;10195;50.868;4.382;2023-04-15T00:54:24;4.80;;;3.13;;
20069;SDS011;10195;50.868;4.382;2023-04-15T00:56:50;7.27;;;3.67;;
20069;SDS011;10195;50.868;4.382;2023-04-15T00:59:16;7.63;;;3.70;;
20069;SDS011;10195;50.868;4.382;2023-04-15T01:01:44;8.33;;;3.57;;
20069;SDS011;10195;50.868;4.382;2023-04-15T01:04:11;4.07;;;3.23;;
20069;SDS011;10195;50.868;4.382;2023-04-15T01:06:37;8.17;;;3.57;;
20069;SDS011;10195;50.868;4.382;2023-04-15T01:09:03;8.83;;;3.40;;
20069;SDS011;10195;50.868;4.382;2023-04-15T01:11:29;4.57;;;2.90;;
20069;SDS011;10195;50.868;4.382;2023-04-15T01:13:58;5.10;;;3.30;;
20069;SDS011;10195;50.868;4.382;2023-04-15T01:16:24;4.87;;;2.97;;
20069;SDS011;10195;50.868;4.382;2023-04-15T01:18:51;6.67;;;3.33;;
20069;SDS011;10195;50.868;4.382;2023-04-15T01:21:17;4.87;;;3.03;;
20069;SDS011;10195;50.868;4.382;2023-04-15T01:23:44;6.33;;;2.70;;
20069;SDS011;10195;50.868;4.382;2023-04-15T01:26:11;4.70;;;2.87;;
20069;SDS011;10195;50.868;4.382;2023-04-15T01:28:41;3.97;;;2.70;;
20069;SDS011;10195;50.868;4.382;2023-04-15T01:31:11;7.20;;;3.17;;
20069;SDS011;10195;50.868;4.382;2023-04-15T01:33:39;6.33;;;2.80;;
20069;SDS011;10195;50.868;4.382;2023-04-15T01:36:07;4.63;;;2.80;;
20069;SDS011;10195;50.868;4.382;2023-04-15T01:38:34;4.60;;;2.80;;
20069;SDS011;10195;50.868;4.382;2023-04-15T01:41:01;8.83;;;2.70;;
20069;SDS011;10195;50.868;4.382;2023-04-15T01:43:32;4.53;;;2.77;;
20069;SDS011;10195;50.868;4.382;2023-04-15T01:45:58;7.17;;;2.73;;
20069;SDS011;10195;50.868;4.382;2023-04-15T01:48:24;6.07;;;2.80;;
20069;SDS011;10195;50.868;4.382;2023-04-15T01:50:51;4.70;;;2.73;;
20069;SDS011;10195;50.868;4.382;2023-04-15T01:53:18;3.50;;;2.60;;
20069;SDS011;10195;50.868;4.382;2023-04-15T01:55:44;4.30;;;2.70;;
20069;SDS011;10195;50.868;4.382;2023-04-15T01:58:10;4.43;;;2.83;;
20069;SDS011;10195;50.868;4.382;2023-04-15T02:00:36;6.33;;;3.47;;
20069;SDS011;10195;50.868;4.382;2023-04-15T02:03:02;6.80;;;3.80;;
20069;SDS011;10195;50.868;4.382;2023-04-15T02:05:28;6.63;;;3.63;;
20069;SDS011;10195;50.868;4.382;2023-04-15T02:07:56;11.47;;;4.80;;
20069;SDS011;10195;50.868;4.382;2023-04-15T02:10:22;7.07;;;3.77;;
20069;SDS011;10195;50.868;4.382;2023-04-15T02:12:48;9.53;;;4.83;;
20069;SDS011;10195;50.868;4.382;2023-04-15T02:15:14;10.13;;;5.47;;
20069;SDS011;10195;50.868;4.382;2023-04-15T02:17:42;11.50;;;5.50;;
20069;SDS011;10195;50.868;4.382;2023-04-15T02:20:10;17.27;;;7.70;;
20069;SDS011;10195;50.868;4.382;2023-04-15T02:22:36;16.83;;;8.33;;
20069;SDS011;10195;50.868;4.382;2023-04-15T02:25:02;20.77;;;9.07;;
20069;SDS011;10195;50.868;4.382;2023-04-15T02:27:30;23.63;;;9.33;;
20069;SDS011;10195;50.868;4.382;2023-04-15T02:29:56;24.13;;;9.97;;
20069;SDS011;10195;50.868;4.382;2023-04-15T02:32:22;25.53;;;10.60;;
20069;SDS011;10195;50.868;4.382;2023-04-15T02:34:53;22.53;;;10.33;;
20069;SDS011;10195;50.868;4.382;2023-04-15T02:37:19;26.87;;;11.53;;
20069;SDS011;10195;50.868;4.382;2023-04-15T02:39:45;27.20;;;12.20;;
20069;SDS011;10195;50.868;4.382;2023-04-15T02:42:11;26.67;;;11.70;;
20069;SDS011;10195;50.868;4.382;2023-04-15T02:44:37;27.57;;;12.27;;
20069;SDS011;10195;50.868;4.382;2023-04-15T02:47:03;30.50;;;13.30;;
20069;SDS011;10195;50.868;4.382;2023-04-15T02:49:31;34.60;;;13.73;;
20069;SDS011;10195;50.868;4.382;2023-04-15T02:51:57;35.57;;;14.50;;
20069;SDS011;10195;50.868;4.382;2023-04-15T02:54:24;32.83;;;14.27;;
20069;SDS011;10195;50.868;4.382;2023-04-15T02:56:52;39.07;;;15.23;;
20069;SDS011;10195;50.868;4.382;2023-04-15T02:59:20;39.13;;;14.73;;
20069;SDS011;10195;50.868;4.382;2023-04-15T03:01:45;34.90;;;13.17;;
20069;SDS011;10195;50.868;4.382;2023-04-15T03:04:11;32.33;;;14.23;;
20069;SDS011;10195;50.868;4.382;2023-04-15T03:06:38;32.80;;;14.10;;
20069;SDS011;10195;50.868;4.382;2023-04-15T03:09:04;31.70;;;14.07;;
20069;SDS011;10195;50.868;4.382;2023-04-15T03:11:30;31.23;;;14.10;;
20069;SDS011;10195;50.868;4.382;2023-04-15T03:14:00;34.07;;;13.47;;
20069;SDS011;10195;50.868;4.382;2023-04-15T03:16:26;33.73;;;14.30;;
20069;SDS011;10195;50.868;4.382;2023-04-15T03:18:52;28.13;;;13.00;;
20069;SDS011;10195;50.868;4.382;2023-04-15T03:21:18;32.33;;;13.97;;
20069;SDS011;10195;50.868;4.382;2023-04-15T03:23:44;25.30;;;12.50;;
20069;SDS011;10195;50.868;4.382;2023-04-15T03:26:10;31.00;;;13.60;;
20069;SDS011;10195;50.868;4.382;2023-04-15T03:28:55;24.37;;;11.97;;
20069;SDS011;10195;50.868;4.382;2023-04-15T03:31:22;20.23;;;10.40;;
20069;SDS011;10195;50.868;4.382;2023-04-15T03:33:48;19.00;;;9.03;;
20069;SDS011;10195;50.868;4.382;2023-04-15T03:36:14;17.60;;;9.33;;
20069;SDS011;10195;50.868;4.382;2023-04-15T03:38:40;17.13;;;9.33;;
20069;SDS011;10195;50.868;4.382;2023-04-15T03:41:06;15.37;;;8.33;;
20069;SDS011;10195;50.868;4.382;2023-04-15T03:43:33;19.10;;;9.00;;
20069;SDS011;10195;50.868;4.382;2023-04-15T03:45:59;14.87;;;8.33;;
20069;SDS011;10195;50.868;4.382;2023-04-15T03:48:25;17.43;;;8.57;;
20069;SDS011;10195;50.868;4.382;2023-04-15T03:50:50;16.20;;;8.33;;
20069;SDS011;10195;50.868;4.382;2023-04-15T03:53:16;14.33;;;7.97;;
20069;SDS011;10195;50.868;4.382;2023-04-15T03:55:42;14.07;;;7.83;;
20069;SDS011;10195;50.868;4.382;2023-04-15T03:58:08;18.53;;;8.20;;
20069;SDS011;10195;50.868;4.382;2023-04-15T04:00:37;16.37;;;7.83;;
20069;SDS011;10195;50.868;4.382;2023-04-15T04:03:03;14.90;;;7.90;;
20069;SDS011;10195;50.868;4.382;2023-04-15T04:05:29;14.53;;;7.40;;
20069;SDS011;10195;50.868;4.382;2023-04-15T04:07:55;10.30;;;7.10;;
20069;SDS011;10195;50.868;4.382;2023-04-15T04:10:21;17.20;;;8.07;;
20069;SDS011;10195;50.868;4.382;2023-04-15T04:12:47;13.07;;;7.40;;
20069;SDS011;10195;50.868;4.382;2023-04-15T04:15:12;14.67;;;6.80;;
20069;SDS011;10195;50.868;4.382;2023-04-15T04:17:38;10.23;;;6.67;;
20069;SDS011;10195;50.868;4.382;2023-04-15T04:20:04;11.77;;;6.53;;
20069;SDS011;10195;50.868;4.382;2023-04-15T04:22:35;16.00;;;7.20;;
20069;SDS011;10195;50.868;4.382;2023-04-15T04:25:10;11.60;;;7.10;;
20069;SDS011;10195;50.868;4.382;2023-04-15T04:27:36;9.90;;;6.53;;
20069;SDS011;10195;50.868;4.382;2023-04-15T04:30:02;12.83;;;7.00;;
20069;SDS011;10195;50.868;4.382;2023-04-15T04:32:29;14.33;;;7.40;;
20069;SDS011;10195;50.868;4.382;2023-04-15T04:34:57;17.53;;;7.57;;
20069;SDS011;10195;50.868;4.382;2023-04-15T04:37:23;14.60;;;7.43;;
20069;SDS011;10195;50.868;4.382;2023-04-15T04:39:49;12.67;;;6.47;;
20069;SDS011;10195;50.868;4.382;2023-04-15T04:42:15;10.40;;;7.40;;
20069;SDS011;10195;50.868;4.382;2023-04-15T04:44:40;12.00;;;6.90;;
20069;SDS011;10195;50.868;4.382;2023-04-15T04:47:06;10.20;;;6.87;;
20069;SDS011;10195;50.868;4.382;2023-04-15T04:49:32;12.00;;;7.30;;
20069;SDS011;10195;50.868;4.382;2023-04-15T04:51:58;14.13;;;7.60;;
20069;SDS011;10195;50.868;4.382;2023-04-15T04:54:24;11.20;;;7.00;;
20069;SDS011;10195;50.868;4.382;2023-04-15T04:56:52;17.77;;;7.10;;
20069;SDS011;10195;50.868;4.382;2023-04-15T04:59:18;11.73;;;7.30;;
20069;SDS011;10195;50.868;4.382;2023-04-15T05:01:44;12.53;;;7.13;;
20069;SDS011;10195;50.868;4.382;2023-04-15T05:04:10;10.37;;;6.73;;
20069;SDS011;10195;50.868;4.382;2023-04-15T05:06:36;16.10;;;7.83;;
20069;SDS011;10195;50.868;4.382;2023-04-15T05:09:02;12.80;;;7.23;;
20069;SDS011;10195;50.868;4.382;2023-04-15T05:11:28;14.63;;;7.37;;
20069;SDS011;10195;50.868;4.382;2023-04-15T05:13:54;10.17;;;6.90;;
20069;SDS011;10195;50.868;4.382;2023-04-15T05:16:19;12.57;;;6.67;;
20069;SDS011;10195;50.868;4.382;2023-04-15T05:18:52;12.67;;;7.17;;
20069;SDS011;10195;50.868;4.382;2023-04-15T05:21:18;9.97;;;6.40;;
20069;SDS011;10195;50.868;4.382;2023-04-15T05:23:44;11.63;;;6.93;;
20069;SDS011;10195;50.868;4.382;2023-04-15T05:26:10;17.10;;;7.17;;
20069;SDS011;10195;50.868;4.382;2023-04-15T05:28:36;11.17;;;6.20;;
20069;SDS011;10195;50.868;4.382;2023-04-15T05:31:02;13.00;;;6.63;;
20069;SDS011;10195;50.868;4.382;2023-04-15T05:33:28;13.03;;;6.17;;
20069;SDS011;10195;50.868;4.382;2023-04-15T05:35:53;13.10;;;6.90;;
20069;SDS011;10195;50.868;4.382;2023-04-15T05:38:19;12.07;;;6.70;;
20069;SDS011;10195;50.868;4.382;2023-04-15T05:40:45;15.60;;;6.57;;
20069;SDS011;10195;50.868;4.382;2023-04-15T05:43:11;15.57;;;6.43;;
20069;SDS011;10195;50.868;4.382;2023-04-15T05:45:36;11.90;;;6.87;;
20069;SDS011;10195;50.868;4.382;2023-04-15T05:48:02;16.00;;;6.60;;
20069;SDS011;10195;50.868;4.382;2023-04-15T05:50:28;10.20;;;6.07;;
20069;SDS011;10195;50.868;4.382;2023-04-15T05:52:53;15.97;;;6.00;;
20069;SDS011;10195;50.868;4.382;2023-04-15T05:55:20;13.10;;;6.60;;
20069;SDS011;10195;50.868;4.382;2023-04-15T05:57:49;12.90;;;7.03;;
20069;SDS011;10195;50.868;4.382;2023-04-15T06:00:15;11.93;;;6.87;;
20069;SDS011;10195;50.868;4.382;2023-04-15T06:02:40;12.93;;;7.07;;
20069;SDS011;10195;50.868;4.382;2023-04-15T06:05:09;16.10;;;6.87;;
20069;SDS011;10195;50.868;4.382;2023-04-15T06:07:37;12.73;;;7.00;;
20069;SDS011;10195;50.868;4.382;2023-04-15T06:10:04;13.80;;;6.53;;
20069;SDS011;10195;50.868;4.382;2023-04-15T06:12:31;10.77;;;6.20;;
20069;SDS011;10195;50.868;4.382;2023-04-15T06:14:57;11.40;;;6.80;;
20069;SDS011;10195;50.868;4.382;2023-04-15T06:17:23;13.40;;;7.00;;
20069;SDS011;10195;50.868;4.382;2023-04-15T06:19:49;12.97;;;7.60;;
20069;SDS011;10195;50.868;4.382;2023-04-15T06:22:19;14.07;;;7.23;;
20069;SDS011;10195;50.868;4.382;2023-04-15T06:24:48;15.80;;;7.53;;
20069;SDS011;10195;50.868;4.382;2023-04-15T06:27:15;14.63;;;6.83;;
20069;SDS011;10195;50.868;4.382;2023-04-15T06:29:41;15.73;;;6.73;;
20069;SDS011;10195;50.868;4.382;2023-04-15T06:32:07;14.60;;;6.77;;
20069;SDS011;10195;50.868;4.382;2023-04-15T06:34:33;10.87;;;5.87;;
20069;SDS011;10195;50.868;4.382;2023-04-15T06:36:59;8.00;;;5.20;;
20069;SDS011;10195;50.868;4.382;2023-04-15T06:39:25;9.97;;;5.60;;
20069;SDS011;10195;50.868;4.382;2023-04-15T06:41:51;15.53;;;6.03;;
20069;SDS011;10195;50.868;4.382;2023-04-15T06:44:21;11.33;;;5.43;;
20069;SDS011;10195;50.868;4.382;2023-04-15T06:46:46;20.20;;;6.60;;
20069;SDS011;10195;50.868;4.382;2023-04-15T06:49:12;8.77;;;5.97;;
20069;SDS011;10195;50.868;4.382;2023-04-15T06:51:38;9.47;;;5.20;;
20069;SDS011;10195;50.868;4.382;2023-04-15T06:54:07;14.23;;;5.80;;
20069;SDS011;10195;50.868;4.382;2023-04-15T06:56:32;13.13;;;5.20;;
20069;SDS011;10195;50.868;4.382;2023-04-15T06:59:00;12.27;;;5.60;;
20069;SDS011;10195;50.868;4.382;2023-04-15T07:01:26;13.60;;;6.90;;
20069;SDS011;10195;50.868;4.382;2023-04-15T07:03:54;12.60;;;6.50;;
20069;SDS011;10195;50.868;4.382;2023-04-15T07:06:21;10.97;;;6.37;;
20069;SDS011;10195;50.868;4.382;2023-04-15T07:08:47;10.50;;;5.77;;
20069;SDS011;10195;50.868;4.382;2023-04-15T07:11:13;13.57;;;6.87;;
20069;SDS011;10195;50.868;4.382;2023-04-15T07:13:39;10.27;;;6.00;;
20069;SDS011;10195;50.868;4.382;2023-04-15T07:16:05;13.27;;;5.97;;
20069;SDS011;10195;50.868;4.382;2023-04-15T07:18:30;15.30;;;6.00;;
20069;SDS011;10195;50.868;4.382;2023-04-15T07:20:56;13.63;;;6.20;;
20069;SDS011;10195;50.868;4.382;2023-04-15T07:23:22;13.73;;;5.77;;
20069;SDS011;10195;50.868;4.382;2023-04-15T07:25:48;11.13;;;6.00;;
20069;SDS011;10195;50.868;4.382;2023-04-15T07:28:13;10.80;;;6.13;;
20069;SDS011;10195;50.868;4.382;2023-04-15T07:30:39;9.50;;;5.43;;
20069;SDS011;10195;50.868;4.382;2023-04-15T07:33:05;14.80;;;6.57;;
20069;SDS011;10195;50.868;4.382;2023-04-15T07:35:31;12.43;;;6.73;;
20069;SDS011;10195;50.868;4.382;2023-04-15T07:37:57;17.80;;;6.90;;
20069;SDS011;10195;50.868;4.382;2023-04-15T07:40:23;14.47;;;6.50;;
20069;SDS011;10195;50.868;4.382;2023-04-15T07:42:48;14.50;;;6.33;;
20069;SDS011;10195;50.868;4.382;2023-04-15T07:45:15;9.07;;;5.60;;
20069;SDS011;10195;50.868;4.382;2023-04-15T07:47:41;10.50;;;6.40;;
20069;SDS011;10195;50.868;4.382;2023-04-15T07:50:08;10.47;;;6.57;;
20069;SDS011;10195;50.868;4.382;2023-04-15T07:52:37;16.00;;;6.83;;
20069;SDS011;10195;50.868;4.382;2023-04-15T07:55:06;12.60;;;6.97;;
20069;SDS011;10195;50.868;4.382;2023-04-15T07:57:33;19.03;;;7.37;;
20069;SDS011;10195;50.868;4.382;2023-04-15T08:00:02;11.10;;;6.77;;
20069;SDS011;10195;50.868;4.382;2023-04-15T08:02:31;13.40;;;7.67;;
20069;SDS011;10195;50.868;4.382;2023-04-15T08:04:57;17.33;;;7.27;;
20069;SDS011;10195;50.868;4.382;2023-04-15T08:07:23;12.80;;;7.13;;
20069;SDS011;10195;50.868;4.382;2023-04-15T08:09:50;20.80;;;7.90;;
20069;SDS011;10195;50.868;4.382;2023-04-15T08:12:16;15.60;;;7.43;;
20069;SDS011;10195;50.868;4.382;2023-04-15T08:14:42;15.50;;;8.30;;
20069;SDS011;10195;50.868;4.382;2023-04-15T08:17:07;17.13;;;8.00;;
20069;SDS011;10195;50.868;4.382;2023-04-15T08:19:33;14.77;;;7.80;;
20069;SDS011;10195;50.868;4.382;2023-04-15T08:21:59;18.33;;;8.30;;
20069;SDS011;10195;50.868;4.382;2023-04-15T08:24:25;14.80;;;8.60;;
20069;SDS011;10195;50.868;4.382;2023-04-15T08:26:51;16.80;;;8.33;;
20069;SDS011;10195;50.868;4.382;2023-04-15T08:29:17;16.70;;;8.07;;
20069;SDS011;10195;50.868;4.382;2023-04-15T08:31:43;13.07;;;7.87;;
20069;SDS011;10195;50.868;4.382;2023-04-15T08:34:12;18.10;;;9.10;;
20069;SDS011;10195;50.868;4.382;2023-04-15T08:36:39;17.77;;;9.63;;
20069;SDS011;10195;50.868;4.382;2023-04-15T08:39:05;17.57;;;9.47;;
20069;SDS011;10195;50.868;4.382;2023-04-15T08:41:50;12.10;;;8.07;;
20069;SDS011;10195;50.868;4.382;2023-04-15T08:44:22;16.00;;;8.47;;
20069;SDS011;10195;50.868;4.382;2023-04-15T08:46:50;15.80;;;8.70;;
20069;SDS011;10195;50.868;4.382;2023-04-15T08:49:17;12.03;;;8.60;;
20069;SDS011;10195;50.868;4.382;2023-04-15T08:51:45;13.60;;;9.00;;
20069;SDS011;10195;50.868;4.382;2023-04-15T08:54:11;14.40;;;8.83;;
20069;SDS011;10195;50.868;4.382;2023-04-15T08:56:37;15.70;;;9.47;;
20069;SDS011;10195;50.868;4.382;2023-04-15T08:59:03;14.10;;;8.70;;
20069;SDS011;10195;50.868;4.382;2023-04-15T09:01:30;11.93;;;8.73;;
20069;SDS011;10195;50.868;4.382;2023-04-15T09:03:57;10.50;;;6.25;;
20069;SDS011;10195;50.868;4.382;2023-04-15T09:06:23;18.93;;;9.00;;
20069;SDS011;10195;50.868;4.382;2023-04-15T09:08:50;14.98;;;8.43;;
20069;SDS011;10195;50.868;4.382;2023-04-15T09:11:16;15.80;;;9.00;;
20069;SDS011;10195;50.868;4.382;2023-04-15T09:13:43;13.98;;;8.55;;
20069;SDS011;10195;50.868;4.382;2023-04-15T09:16:09;12.50;;;7.88;;
20069;SDS011;10195;50.868;4.382;2023-04-15T09:18:36;16.23;;;7.65;;
20069;SDS011;10195;50.868;4.382;2023-04-15T09:21:04;14.20;;;7.63;;
20069;SDS011;10195;50.868;4.382;2023-04-15T09:23:32;10.57;;;6.57;;
20069;SDS011;10195;50.868;4.382;2023-04-15T09:25:59;8.20;;;5.05;;
20069;SDS011;10195;50.868;4.382;2023-04-15T09:28:26;8.52;;;5.25;;
20069;SDS011;10195;50.868;4.382;2023-04-15T09:30:56;7.30;;;5.03;;
20069;SDS011;10195;50.868;4.382;2023-04-15T09:33:25;13.75;;;5.95;;
20069;SDS011;10195;50.868;4.382;2023-04-15T09:36:03;10.38;;;5.90;;
20069;SDS011;10195;50.868;4.382;2023-04-15T09:38:29;11.68;;;5.82;;
20069;SDS011;10195;50.868;4.382;2023-04-15T09:40:56;4.30;;;3.00;;
20069;SDS011;10195;50.868;4.382;2023-04-15T09:43:22;8.30;;;4.63;;
20069;SDS011;10195;50.868;4.382;2023-04-15T09:46:03;7.30;;;4.80;;
20069;SDS011;10195;50.868;4.382;2023-04-15T09:48:29;6.35;;;4.85;;
20069;SDS011;10195;50.868;4.382;2023-04-15T09:50:58;13.15;;;5.75;;
20069;SDS011;10195;50.868;4.382;2023-04-15T09:53:25;11.65;;;5.82;;
20069;SDS011;10195;50.868;4.382;2023-04-15T09:55:52;7.93;;;4.43;;
20069;SDS011;10195;50.868;4.382;2023-04-15T09:58:22;6.93;;;5.43;;
20069;SDS011;10195;50.868;4.382;2023-04-15T10:00:50;12.38;;;5.55;;
20069;SDS011;10195;50.868;4.382;2023-04-15T10:03:21;7.65;;;5.65;;
20069;SDS011;10195;50.868;4.382;2023-04-15T10:05:47;13.77;;;6.07;;
20069;SDS011;10195;50.868;4.382;2023-04-15T10:08:19;7.15;;;5.05;;
20069;SDS011;10195;50.868;4.382;2023-04-15T10:10:47;12.27;;;5.93;;
20069;SDS011;10195;50.868;4.382;2023-04-15T10:13:13;8.30;;;4.95;;
20069;SDS011;10195;50.868;4.382;2023-04-15T10:15:43;10.47;;;5.70;;
20069;SDS011;10195;50.868;4.382;2023-04-15T10:18:14;8.17;;;5.27;;
20069;SDS011;10195;50.868;4.382;2023-04-15T10:20:43;9.40;;;5.90;;
20069;SDS011;10195;50.868;4.382;2023-04-15T10:23:10;9.03;;;5.73;;
20069;SDS011;10195;50.868;4.382;2023-04-15T10:25:37;8.57;;;6.37;;
20069;SDS011;10195;50.868;4.382;2023-04-15T10:28:05;8.40;;;6.47;;
20069;SDS011;10195;50.868;4.382;2023-04-15T10:30:32;8.23;;;6.43;;
20069;SDS011;10195;50.868;4.382;2023-04-15T10:32:58;10.50;;;5.30;;
20069;SDS011;10195;50.868;4.382;2023-04-15T10:35:28;5.50;;;2.90;;
20069;SDS011;10195;50.868;4.382;2023-04-15T10:37:56;9.73;;;4.37;;
20069;SDS011;10195;50.868;4.382;2023-04-15T10:40:31;5.90;;;3.30;;
20069;SDS011;10195;50.868;4.382;2023-04-15T10:42:58;5.47;;;3.43;;
20069;SDS011;10195;50.868;4.382;2023-04-15T10:45:36;5.73;;;3.63;;
20069;SDS011;10195;50.868;4.382;2023-04-15T10:48:03;5.57;;;3.20;;
20069;SDS011;10195;50.868;4.382;2023-04-15T10:50:32;4.83;;;3.03;;
20069;SDS011;10195;50.868;4.382;2023-04-15T10:52:58;5.57;;;3.43;;
20069;SDS011;10195;50.868;4.382;2023-04-15T10:55:30;7.57;;;3.40;;
20069;SDS011;10195;50.868;4.382;2023-04-15T10:57:57;4.17;;;3.40;;
20069;SDS011;10195;50.868;4.382;2023-04-15T11:00:28;4.53;;;2.90;;
20069;SDS011;10195;50.868;4.382;2023-04-15T11:08:06;5.47;;;3.20;;
20069;SDS011;10195;50.868;4.382;2023-04-15T11:13:02;5.23;;;3.30;;
20069;SDS011;10195;50.868;4.382;2023-04-15T11:15:33;5.60;;;3.47;;
20069;SDS011;10195;50.868;4.382;2023-04-15T11:20:40;6.53;;;3.73;;
20069;SDS011;10195;50.868;4.382;2023-04-15T11:23:09;7.05;;;3.88;;
20069;SDS011;10195;50.868;4.382;2023-04-15T11:25:35;5.03;;;3.90;;
20069;SDS011;10195;50.868;4.382;2023-04-15T11:28:02;4.90;;;3.37;;
20069;SDS011;10195;50.868;4.382;2023-04-15T11:30:30;6.07;;;3.83;;
20069;SDS011;10195;50.868;4.382;2023-04-15T11:32:58;6.03;;;4.10;;
20069;SDS011;10195;50.868;4.382;2023-04-15T11:35:25;9.05;;;3.22;;
20069;SDS011;10195;50.868;4.382;2023-04-15T11:37:51;6.03;;;2.73;;
20069;SDS011;10195;50.868;4.382;2023-04-15T11:40:24;4.40;;;2.53;;
20069;SDS011;10195;50.868;4.382;2023-04-15T11:48:25;5.00;;;2.37;;
20069;SDS011;10195;50.868;4.382;2023-04-15T11:51:02;3.00;;;1.90;;
20069;SDS011;10195;50.868;4.382;2023-04-15T11:53:42;5.23;;;3.07;;
20069;SDS011;10195;50.868;4.382;2023-04-15T11:56:16;7.20;;;3.30;;
20069;SDS011;10195;50.868;4.382;2023-04-15T11:58:47;9.40;;;3.80;;
20069;SDS011;10195;50.868;4.382;2023-04-15T12:01:16;4.57;;;3.33;;
20069;SDS011;10195;50.868;4.382;2023-04-15T12:03:42;4.73;;;2.83;;
20069;SDS011;10195;50.868;4.382;2023-04-15T12:06:15;3.97;;;2.50;;
20069;SDS011;10195;50.868;4.382;2023-04-15T12:14:36;2.67;;;1.70;;
20069;SDS011;10195;50.868;4.382;2023-04-15T12:17:03;3.80;;;3.10;;
20069;SDS011;10195;50.868;4.382;2023-04-15T12:19:30;8.13;;;3.67;;
20069;SDS011;10195;50.868;4.382;2023-04-15T12:22:00;9.23;;;3.30;;
20069;SDS011;10195;50.868;4.382;2023-04-15T12:24:34;6.43;;;3.27;;
20069;SDS011;10195;50.868;4.382;2023-04-15T12:27:01;3.53;;;3.03;;
20069;SDS011;10195;50.868;4.382;2023-04-15T12:29:29;3.30;;;2.40;;
20069;SDS011;10195;50.868;4.382;2023-04-15T12:31:56;3.03;;;2.33;;
20069;SDS011;10195;50.868;4.382;2023-04-15T12:34:29;4.77;;;3.00;;
20069;SDS011;10195;50.868;4.382;2023-04-15T12:37:00;2.27;;;1.40;;
20069;SDS011;10195;50.868;4.382;2023-04-15T12:39:28;4.30;;;1.70;;
20069;SDS011;10195;50.868;4.382;2023-04-15T12:41:56;7.33;;;2.43;;
20069;SDS011;10195;50.868;4.382;2023-04-15T12:44:24;6.30;;;2.40;;
20069;SDS011;10195;50.868;4.382;2023-04-15T12:46:51;5.60;;;2.67;;
20069;SDS011;10195;50.868;4.382;2023-04-15T12:49:17;3.20;;;2.43;;
20069;SDS011;10195;50.868;4.382;2023-04-15T12:51:45;3.87;;;2.30;;
20069;SDS011;10195;50.868;4.382;2023-04-15T12:54:18;2.90;;;2.10;;
20069;SDS011;10195;50.868;4.382;2023-04-15T12:56:45;5.17;;;2.23;;
20069;SDS011;10195;50.868;4.382;2023-04-15T12:59:12;3.27;;;2.17;;
20069;SDS011;10195;50.868;4.382;2023-04-15T13:01:39;3.63;;;2.17;;
20069;SDS011;10195;50.868;4.382;2023-04-15T13:04:05;6.15;;;2.58;;
20069;SDS011;10195;50.868;4.382;2023-04-15T13:06:31;4.23;;;2.20;;
20069;SDS011;10195;50.868;4.382;2023-04-15T13:08:59;3.70;;;2.70;;
20069;SDS011;10195;50.868;4.382;2023-04-15T13:11:27;4.53;;;2.17;;
20069;SDS011;10195;50.868;4.382;2023-04-15T13:13:55;7.37;;;2.70;;
20069;SDS011;10195;50.868;4.382;2023-04-15T13:16:22;5.03;;;2.47;;
20069;SDS011;10195;50.868;4.382;2023-04-15T13:19:00;4.03;;;2.63;;
20069;SDS011;10195;50.868;4.382;2023-04-15T13:21:27;5.83;;;3.33;;
20069;SDS011;10195;50.868;4.382;2023-04-15T13:23:53;4.47;;;3.03;;
20069;SDS011;10195;50.868;4.382;2023-04-15T13:26:20;10.43;;;3.63;;
20069;SDS011;10195;50.868;4.382;2023-04-15T13:28:46;3.93;;;2.70;;
20069;SDS011;10195;50.868;4.382;2023-04-15T13:31:12;6.25;;;3.10;;
20069;SDS011;10195;50.868;4.382;2023-04-15T13:33:37;4.55;;;2.50;;
20069;SDS011;10195;50.868;4.382;2023-04-15T13:36:03;2.07;;;1.80;;
20069;SDS011;10195;50.868;4.382;2023-04-15T13:38:29;5.47;;;2.53;;
20069;SDS011;10195;50.868;4.382;2023-04-15T13:40:56;3.67;;;2.67;;
20069;SDS011;10195;50.868;4.382;2023-04-15T13:43:24;5.13;;;2.60;;
20069;SDS011;10195;50.868;4.382;2023-04-15T13:45:51;3.30;;;2.40;;
20069;SDS011;10195;50.868;4.382;2023-04-15T13:48:16;4.93;;;2.22;;
20069;SDS011;10195;50.868;4.382;2023-04-15T13:50:42;6.13;;;2.23;;
20069;SDS011;10195;50.868;4.382;2023-04-15T13:53:09;4.33;;;2.13;;
20069;SDS011;10195;50.868;4.382;2023-04-15T13:55:35;6.17;;;2.60;;
20069;SDS011;10195;50.868;4.382;2023-04-15T13:58:05;5.30;;;2.40;;
20069;SDS011;10195;50.868;4.382;2023-04-15T14:00:32;5.90;;;2.13;;
20069;SDS011;10195;50.868;4.382;2023-04-15T14:02:58;10.97;;;2.60;;
20069;SDS011;10195;50.868;4.382;2023-04-15T14:05:24;3.90;;;2.53;;
20069;SDS011;10195;50.868;4.382;2023-04-15T14:07:50;4.43;;;2.53;;
20069;SDS011;10195;50.868;4.382;2023-04-15T14:10:16;6.70;;;2.90;;
20069;SDS011;10195;50.868;4.382;2023-04-15T14:12:41;5.03;;;2.00;;
20069;SDS011;10195;50.868;4.382;2023-04-15T14:15:07;7.20;;;2.30;;
20069;SDS011;10195;50.868;4.382;2023-04-15T14:17:33;9.50;;;2.60;;
20069;SDS011;10195;50.868;4.382;2023-04-15T14:19:59;5.10;;;2.50;;
20069;SDS011;10195;50.868;4.382;2023-04-15T14:22:25;3.47;;;1.73;;
20069;SDS011;10195;50.868;4.382;2023-04-15T14:24:50;4.70;;;2.10;;
20069;SDS011;10195;50.868;4.382;2023-04-15T14:27:18;5.43;;;1.83;;
20069;SDS011;10195;50.868;4.382;2023-04-15T14:29:44;3.40;;;1.73;;
20069;SDS011;10195;50.868;4.382;2023-04-15T14:32:09;2.57;;;1.70;;
20069;SDS011;10195;50.868;4.382;2023-04-15T14:34:35;4.57;;;1.73;;
20069;SDS011;10195;50.868;4.382;2023-04-15T14:37:01;2.70;;;1.53;;
20069;SDS011;10195;50.868;4.382;2023-04-15T14:39:28;1.07;;;0.97;;
20069;SDS011;10195;50.868;4.382;2023-04-15T14:41:53;3.70;;;1.53;;
20069;SDS011;10195;50.868;4.382;2023-04-15T14:44:20;3.60;;;1.67;;
20069;SDS011;10195;50.868;4.382;2023-04-15T14:46:46;2.07;;;1.37;;
20069;SDS011;10195;50.868;4.382;2023-04-15T14:49:11;3.37;;;1.60;;
20069;SDS011;10195;50.868;4.382;2023-04-15T14:51:37;2.37;;;1.20;;
20069;SDS011;10195;50.868;4.382;2023-04-15T14:54:03;4.83;;;1.70;;
20069;SDS011;10195;50.868;4.382;2023-04-15T14:56:28;2.93;;;1.90;;
20069;SDS011;10195;50.868;4.382;2023-04-15T14:58:54;5.43;;;1.50;;
20069;SDS011;10195;50.868;4.382;2023-04-15T15:01:23;3.17;;;1.70;;